createdAt,value
2018-09-10T00:00:08.485Z,58.65
2018-09-10T00:02:36.162Z,58.75
2018-09-10T00:05:04.002Z,58.14
2018-09-10T00:07:31.724Z,59.09
2018-09-10T00:09:59.402Z,59.05
2018-09-10T00:12:27.170Z,60.95
2018-09-10T00:14:54.890Z,60.52
2018-09-10T00:17:22.556Z,59.76
2018-09-10T00:19:50.218Z,59.85
2018-09-10T00:22:17.936Z,59.13
2018-09-10T00:24:45.608Z,60.34
2018-09-10T00:27:13.276Z,59.57
2018-09-10T00:29:41.009Z,59.59
2018-09-10T00:32:08.672Z,58.99
2018-09-10T00:34:36.335Z,60.36
2018-09-10T00:37:04.082Z,59.71
2018-09-10T00:39:31.738Z,59.28
2018-09-10T00:41:59.398Z,59.93
2018-09-10T00:44:27.082Z,59.49
2018-09-10T00:46:54.801Z,59.72
2018-09-10T00:49:22.465Z,60.34
2018-09-10T00:51:50.180Z,60.32
2018-09-10T00:54:17.843Z,61.25
2018-09-10T00:56:45.521Z,61.55
2018-09-10T00:59:13.237Z,61.61
2018-09-10T01:01:40.902Z,63.59
2018-09-10T01:04:08.573Z,64.94
2018-09-10T01:06:36.297Z,64.72
2018-09-10T01:09:06.377Z,64.80
2018-09-10T01:11:34.070Z,64.49
2018-09-10T01:14:01.865Z,64.33
2018-09-10T01:16:29.569Z,64.31
2018-09-10T01:18:57.250Z,64.76
2018-09-10T01:21:24.957Z,63.82
2018-09-10T01:23:52.633Z,63.42
2018-09-10T01:26:20.319Z,64.60
2018-09-10T01:28:47.997Z,64.68
2018-09-10T01:31:15.678Z,65.12
2018-09-10T01:33:48.761Z,65.08
2018-09-10T01:36:16.478Z,65.41
2018-09-10T01:38:44.145Z,65.19
2018-09-10T01:41:11.843Z,65.89
2018-09-10T01:43:39.517Z,66.88
2018-09-10T01:46:07.193Z,66.72
2018-09-10T01:48:34.902Z,66.80
2018-09-10T01:51:02.581Z,65.67
2018-09-10T01:53:30.260Z,65.84
2018-09-10T01:55:58.129Z,66.27
2018-09-10T01:58:25.790Z,66.23
2018-09-10T02:00:53.482Z,65.91
2018-09-10T02:03:21.207Z,66.75
2018-09-10T02:05:48.877Z,66.86
2018-09-10T02:08:16.537Z,67.05
2018-09-10T02:10:44.216Z,66.96
2018-09-10T02:13:11.889Z,67.25
2018-09-10T02:15:45.323Z,67.88
2018-09-10T02:18:13.006Z,67.39
2018-09-10T02:20:40.697Z,68.07
2018-09-10T02:23:08.401Z,67.81
2018-09-10T02:25:36.077Z,68.48
2018-09-10T02:28:03.826Z,68.57
2018-09-10T02:30:31.706Z,68.12
2018-09-10T02:32:59.422Z,67.65
2018-09-10T02:35:27.119Z,67.40
2018-09-10T02:37:54.825Z,67.49
2018-09-10T02:40:22.498Z,67.12
2018-09-10T02:42:50.236Z,67.05
2018-09-10T02:45:17.958Z,66.05
2018-09-10T02:47:45.610Z,65.87
2018-09-10T02:50:13.303Z,65.45
2018-09-10T02:52:41.021Z,65.92
2018-09-10T02:55:08.718Z,66.71
2018-09-10T02:57:36.397Z,66.59
2018-09-10T03:00:04.476Z,67.27
2018-09-10T03:02:32.158Z,67.66
2018-09-10T03:04:59.821Z,67.98
2018-09-10T03:07:27.562Z,68.74
2018-09-10T03:09:55.246Z,67.65
2018-09-10T03:12:22.994Z,67.10
2018-09-10T03:14:50.711Z,67.31
2018-09-10T03:17:18.446Z,66.74
2018-09-10T03:19:46.139Z,66.08
2018-09-10T03:22:13.842Z,66.14
2018-09-10T03:24:41.530Z,66.56
2018-09-10T03:27:09.197Z,66.62
2018-09-10T03:29:36.895Z,67.09
2018-09-10T03:32:04.602Z,67.67
2018-09-10T03:34:32.277Z,68.27
2018-09-10T03:36:59.979Z,68.00
2018-09-10T03:39:27.678Z,68.45
2018-09-10T03:41:55.358Z,67.82
2018-09-10T03:44:23.068Z,67.92
2018-09-10T03:46:50.745Z,67.49
2018-09-10T03:49:18.401Z,67.29
2018-09-10T03:51:46.121Z,67.26
2018-09-10T03:54:13.769Z,66.48
2018-09-10T03:56:41.442Z,65.82
2018-09-10T03:59:09.165Z,65.18
2018-09-10T04:01:36.870Z,64.57
2018-09-10T04:04:04.564Z,63.86
2018-09-10T04:06:32.285Z,63.81
2018-09-10T04:08:59.961Z,64.61
2018-09-10T04:11:27.699Z,64.05
2018-09-10T04:13:55.387Z,64.97
2018-09-10T04:16:23.042Z,63.63
2018-09-10T04:18:50.906Z,63.60
2018-09-10T04:21:18.718Z,64.18
2018-09-10T04:23:46.389Z,64.26
2018-09-10T04:26:14.042Z,63.71
2018-09-10T04:28:41.750Z,63.99
2018-09-10T04:31:09.418Z,64.37
2018-09-10T04:33:37.174Z,64.26
2018-09-10T04:36:04.962Z,63.80
2018-09-10T04:38:32.652Z,63.46
2018-09-10T04:41:00.313Z,62.54
2018-09-10T04:43:28.021Z,62.64
2018-09-10T04:45:55.694Z,62.74
2018-09-10T04:48:23.383Z,61.54
2018-09-10T04:50:51.093Z,60.95
2018-09-10T04:53:18.814Z,60.79
2018-09-10T04:55:46.470Z,60.37
2018-09-10T04:58:14.363Z,59.15
2018-09-10T05:00:41.964Z,59.32
2018-09-10T05:03:09.682Z,59.01
2018-09-10T05:05:37.398Z,59.20
2018-09-10T05:08:05.080Z,59.14
2018-09-10T05:12:59.786Z,60.05
2018-09-10T05:15:27.441Z,59.61
2018-09-10T05:17:55.171Z,58.89
2018-09-10T05:20:23.011Z,58.76
2018-09-10T05:22:50.714Z,58.15
2018-09-10T05:25:25.033Z,59.20
2018-09-10T05:27:52.751Z,59.70
2018-09-10T05:30:20.514Z,58.28
2018-09-10T05:32:48.399Z,59.56
2018-09-10T05:35:16.235Z,60.03
2018-09-10T05:37:43.936Z,61.29
2018-09-10T05:40:11.723Z,58.73
2018-09-10T05:42:39.542Z,59.34
2018-09-10T05:45:09.682Z,62.47
2018-09-10T05:47:37.473Z,62.60
2018-09-10T05:50:05.220Z,63.00
2018-09-10T05:52:32.924Z,62.21
2018-09-10T05:55:00.647Z,60.46
2018-09-10T05:57:28.342Z,58.32
2018-09-10T05:59:56.027Z,57.48
2018-09-10T06:02:23.734Z,52.27
2018-09-10T06:04:51.410Z,51.05
2018-09-10T06:07:19.110Z,46.55
2018-09-10T06:09:46.862Z,44.63
2018-09-10T06:12:14.536Z,45.68
2018-09-10T06:14:42.250Z,47.12
2018-09-10T06:17:09.950Z,45.45
2018-09-10T06:19:37.619Z,44.85
2018-09-10T06:22:05.560Z,43.93
2018-09-10T06:24:33.320Z,43.60
2018-09-10T06:27:01.007Z,43.12
2018-09-10T06:29:28.752Z,48.61
2018-09-10T06:31:57.543Z,52.51
2018-09-10T06:34:25.293Z,48.59
2018-09-10T06:36:53.025Z,46.28
2018-09-10T06:39:20.725Z,43.24
2018-09-10T06:41:48.412Z,41.72
2018-09-10T06:44:16.085Z,45.95
2018-09-10T06:46:43.803Z,49.32
2018-09-10T06:49:11.485Z,49.20
2018-09-10T06:51:39.259Z,50.52
2018-09-10T06:54:07.138Z,55.23
2018-09-10T06:56:34.992Z,54.88
2018-09-10T06:59:02.890Z,52.65
2018-09-10T07:01:30.695Z,52.01
2018-09-10T07:03:58.425Z,49.54
2018-09-10T07:06:26.262Z,48.28
2018-09-10T07:08:54.015Z,46.30
2018-09-10T07:11:21.734Z,45.56
2018-09-10T07:13:49.510Z,46.70
2018-09-10T07:16:17.654Z,45.12
2018-09-10T07:18:45.596Z,43.37
2018-09-10T07:21:14.142Z,44.27
2018-09-10T07:23:41.925Z,44.41
2018-09-10T07:26:09.586Z,46.27
2018-09-10T07:28:37.274Z,45.95
2018-09-10T07:31:05.074Z,45.29
2018-09-10T07:33:32.754Z,47.11
2018-09-10T07:36:01.453Z,47.70
2018-09-10T07:38:29.180Z,46.48
2018-09-10T07:40:56.957Z,46.83
2018-09-10T07:43:24.768Z,45.89
2018-09-10T07:45:52.639Z,46.45
2018-09-10T07:48:20.370Z,44.92
2018-09-10T07:50:48.087Z,46.50
2018-09-10T07:53:15.810Z,44.12
2018-09-10T07:55:43.519Z,42.47
2018-09-10T07:58:11.264Z,40.26
2018-09-10T08:00:39.061Z,43.44
2018-09-10T08:03:06.888Z,43.16
2018-09-10T08:05:34.491Z,42.93
2018-09-10T08:08:02.221Z,42.88
2018-09-10T08:10:29.941Z,43.90
2018-09-10T08:12:57.655Z,44.66
2018-09-10T08:15:25.431Z,43.67
2018-09-10T08:17:53.151Z,43.77
2018-09-10T08:20:20.909Z,45.04
2018-09-10T08:22:48.657Z,45.18
2018-09-10T08:25:16.456Z,42.08
2018-09-10T08:27:44.161Z,40.44
2018-09-10T08:30:11.882Z,43.83
2018-09-10T08:32:39.894Z,45.32
2018-09-10T08:35:07.715Z,43.74
2018-09-10T08:37:35.595Z,43.63
2018-09-10T08:40:03.390Z,40.56
2018-09-10T08:42:31.100Z,40.68
2018-09-10T08:44:59.387Z,40.69
2018-09-10T08:47:27.046Z,42.80
2018-09-10T08:49:54.923Z,41.41
2018-09-10T08:52:22.671Z,40.47
2018-09-10T08:54:50.621Z,42.13
2018-09-10T08:57:18.092Z,40.05
2018-09-10T08:59:45.941Z,38.82
2018-09-10T09:02:13.631Z,39.87
2018-09-10T09:04:41.323Z,37.62
2018-09-10T09:07:09.034Z,38.82
2018-09-10T09:09:37.508Z,39.01
2018-09-10T09:12:05.190Z,37.74
2018-09-10T09:14:32.895Z,36.69
2018-09-10T09:17:00.581Z,36.89
2018-09-10T09:19:28.369Z,37.09
2018-09-10T09:21:56.174Z,34.97
2018-09-10T09:24:23.902Z,34.40
2018-09-10T09:26:51.805Z,36.74
2018-09-10T09:29:19.647Z,35.40
2018-09-10T09:31:47.485Z,34.89
2018-09-10T09:34:15.259Z,34.33
2018-09-10T09:36:48.444Z,33.51
2018-09-10T09:39:21.756Z,32.18
2018-09-10T09:41:54.994Z,33.85
2018-09-10T09:44:28.110Z,34.63
2018-09-10T09:46:56.041Z,31.83
2018-09-10T09:49:23.731Z,31.63
2018-09-10T09:51:51.511Z,34.56
2018-09-10T09:54:19.285Z,33.98
2018-09-10T09:56:47.096Z,33.34
2018-09-10T09:59:14.780Z,30.79
2018-09-10T10:01:46.379Z,31.16
2018-09-10T10:04:14.197Z,33.25
2018-09-10T10:06:41.881Z,31.09
2018-09-10T10:09:11.591Z,30.24
2018-09-10T10:11:39.835Z,30.50
2018-09-10T10:14:08.013Z,31.20
2018-09-10T10:16:36.085Z,30.90
2018-09-10T10:19:03.847Z,29.14
2018-09-10T10:21:31.584Z,29.59
2018-09-10T10:23:59.387Z,29.86
2018-09-10T10:26:27.087Z,29.32
2018-09-10T10:28:54.846Z,28.38
2018-09-10T10:31:22.571Z,32.17
2018-09-10T10:33:50.261Z,33.29
2018-09-10T10:36:17.959Z,34.49
2018-09-10T10:38:45.711Z,31.40
2018-09-10T10:41:13.407Z,30.86
2018-09-10T10:43:41.127Z,30.10
2018-09-10T10:46:08.843Z,29.74
2018-09-10T10:48:36.544Z,31.31
2018-09-10T10:51:04.343Z,32.02
2018-09-10T10:53:32.135Z,30.81
2018-09-10T10:55:59.869Z,29.98
2018-09-10T10:58:27.588Z,30.51
2018-09-10T11:00:55.341Z,29.54
2018-09-10T11:03:23.103Z,29.33
2018-09-10T11:05:50.805Z,29.56
2018-09-10T11:08:18.493Z,31.56
2018-09-10T11:10:46.187Z,28.96
2018-09-10T11:13:13.900Z,27.98
2018-09-10T11:15:41.894Z,26.30
2018-09-10T11:18:09.605Z,24.90
2018-09-10T11:20:37.319Z,24.61
2018-09-10T11:23:05.062Z,27.58
2018-09-10T11:25:32.787Z,25.97
2018-09-10T11:28:00.839Z,24.40
2018-09-10T11:30:28.686Z,24.66
2018-09-10T11:32:56.561Z,26.88
2018-09-10T11:35:24.356Z,28.11
2018-09-10T11:37:52.159Z,28.42
2018-09-10T11:40:19.864Z,30.11
2018-09-10T11:42:47.544Z,31.66
2018-09-10T11:45:15.252Z,32.21
2018-09-10T11:47:42.937Z,30.85
2018-09-10T11:50:10.652Z,30.32
2018-09-10T11:52:38.413Z,31.33
2018-09-10T11:55:06.185Z,31.35
2018-09-10T11:57:33.867Z,31.99
2018-09-10T12:00:01.638Z,30.48
2018-09-10T12:02:29.292Z,30.45
2018-09-10T12:04:57.011Z,31.95
2018-09-10T12:07:24.708Z,32.06
2018-09-10T12:09:52.380Z,32.21
2018-09-10T12:12:20.088Z,32.55
2018-09-10T12:14:47.847Z,31.85
2018-09-10T12:17:15.560Z,31.16
2018-09-10T12:19:43.439Z,29.35
2018-09-10T12:22:11.207Z,29.47
2018-09-10T12:24:38.917Z,29.79
2018-09-10T12:27:06.784Z,30.52
2018-09-10T12:29:34.527Z,30.32
2018-09-10T12:32:02.590Z,30.64
2018-09-10T12:34:30.291Z,30.86
2018-09-10T12:36:58.081Z,30.20
2018-09-10T12:39:26.050Z,31.70
2018-09-10T12:41:53.794Z,31.36
2018-09-10T12:44:21.570Z,30.65
2018-09-10T12:46:49.278Z,29.81
2018-09-10T12:49:16.998Z,29.27
2018-09-10T12:51:44.809Z,30.26
2018-09-10T12:54:12.553Z,29.10
2018-09-10T12:56:40.367Z,29.59
2018-09-10T12:59:08.189Z,31.27
2018-09-10T13:01:35.965Z,31.49
2018-09-10T13:04:03.752Z,30.71
2018-09-10T13:06:31.518Z,31.43
2018-09-10T13:08:59.234Z,29.79
2018-09-10T13:11:27.002Z,29.45
2018-09-10T13:13:54.724Z,28.91
2018-09-10T13:16:22.484Z,28.42
2018-09-10T13:18:50.246Z,28.00
2018-09-10T13:21:17.973Z,30.57
2018-09-10T13:23:45.709Z,29.45
2018-09-10T13:26:13.479Z,32.42
2018-09-10T13:28:41.265Z,32.55
2018-09-10T13:31:08.965Z,32.78
2018-09-10T13:33:36.745Z,31.00
2018-09-10T13:36:04.442Z,28.68
2018-09-10T13:38:32.182Z,28.47
2018-09-10T13:40:59.892Z,28.68
2018-09-10T13:43:27.612Z,29.01
2018-09-10T13:45:55.497Z,29.17
2018-09-10T13:48:23.247Z,28.31
2018-09-10T13:50:50.983Z,28.18
2018-09-10T13:53:18.708Z,28.41
2018-09-10T13:55:46.405Z,27.68
2018-09-10T13:58:14.213Z,28.49
2018-09-10T14:00:41.913Z,27.99
2018-09-10T14:03:09.657Z,27.46
2018-09-10T14:05:37.419Z,29.41
2018-09-10T14:08:05.167Z,29.92
2018-09-10T14:10:32.972Z,28.64
2018-09-10T14:13:00.732Z,26.83
2018-09-10T14:15:28.613Z,29.54
2018-09-10T14:17:56.387Z,27.77
2018-09-10T14:20:24.205Z,28.77
2018-09-10T14:22:52.314Z,28.61
2018-09-10T14:25:20.374Z,28.50
2018-09-10T14:27:48.594Z,30.46
2018-09-10T14:30:16.348Z,30.46
2018-09-10T14:32:44.127Z,31.42
2018-09-10T14:35:12.056Z,30.86
2018-09-10T14:37:40.030Z,30.49
2018-09-10T14:40:07.818Z,31.45
2018-09-10T14:42:35.615Z,30.88
2018-09-10T14:45:03.429Z,31.17
2018-09-10T14:47:31.134Z,30.56
2018-09-10T14:49:58.896Z,31.34
2018-09-10T14:52:26.697Z,32.89
2018-09-10T14:54:54.401Z,32.96
2018-09-10T14:57:22.213Z,33.65
2018-09-10T14:59:49.930Z,36.43
2018-09-10T15:02:17.651Z,39.42
2018-09-10T15:04:45.401Z,40.64
2018-09-10T15:07:13.139Z,38.23
2018-09-10T15:09:40.901Z,36.56
2018-09-10T15:12:08.774Z,35.84
2018-09-10T15:14:36.581Z,34.72
2018-09-10T15:17:04.330Z,36.00
2018-09-10T15:19:32.141Z,40.73
2018-09-10T15:22:00.074Z,43.10
2018-09-10T15:24:27.839Z,43.21
2018-09-10T15:26:56.195Z,43.60
2018-09-10T15:29:23.925Z,43.75
2018-09-10T15:31:52.796Z,43.52
2018-09-10T15:34:20.576Z,44.74
2018-09-10T15:36:48.418Z,45.45
2018-09-10T15:39:16.152Z,46.24
2018-09-10T15:41:43.882Z,44.70
2018-09-10T15:44:11.674Z,44.42
2018-09-10T15:46:39.409Z,45.54
2018-09-10T15:49:07.250Z,43.06
2018-09-10T15:51:34.917Z,42.28
2018-09-10T15:54:02.644Z,43.57
2018-09-10T15:56:30.409Z,42.60
2018-09-10T15:58:58.274Z,42.36
2018-09-10T16:01:25.980Z,42.37
2018-09-10T16:03:53.771Z,41.31
2018-09-10T16:06:21.477Z,44.31
2018-09-10T16:08:49.497Z,43.88
2018-09-10T16:11:17.203Z,44.18
2018-09-10T16:13:44.957Z,42.24
2018-09-10T16:16:12.688Z,42.08
2018-09-10T16:18:40.429Z,43.83
2018-09-10T16:21:08.146Z,42.14
2018-09-10T16:23:35.890Z,40.87
2018-09-10T16:26:03.678Z,42.79
2018-09-10T16:28:31.351Z,44.33
2018-09-10T16:30:59.046Z,44.84
2018-09-10T16:33:26.808Z,45.00
2018-09-10T16:35:54.519Z,47.46
2018-09-10T16:38:22.284Z,47.22
2018-09-10T16:40:50.010Z,47.80
2018-09-10T16:43:17.729Z,47.51
2018-09-10T16:45:45.461Z,49.55
2018-09-10T16:48:13.290Z,50.07
2018-09-10T16:50:41.006Z,51.13
2018-09-10T16:53:08.697Z,51.65
2018-09-10T16:55:36.455Z,53.17
2018-09-10T16:58:04.150Z,54.18
2018-09-10T17:00:31.941Z,54.35
2018-09-10T17:02:59.630Z,54.21
2018-09-10T17:05:27.388Z,54.13
2018-09-10T17:07:55.097Z,53.71
2018-09-10T17:10:22.818Z,54.02
2018-09-10T17:12:50.563Z,53.21
2018-09-10T17:15:18.334Z,54.42
2018-09-10T17:17:46.065Z,54.25
2018-09-10T17:20:13.749Z,54.20
2018-09-10T17:22:48.209Z,54.78
2018-09-10T17:25:15.918Z,55.04
2018-09-10T17:27:43.690Z,54.40
2018-09-10T17:30:11.759Z,55.12
2018-09-10T17:32:39.598Z,55.12
2018-09-10T17:35:07.287Z,54.98
2018-09-10T17:37:35.114Z,54.62
2018-09-10T17:40:03.054Z,54.84
2018-09-10T17:42:30.885Z,54.65
2018-09-10T17:44:58.657Z,54.89
2018-09-10T17:47:26.447Z,54.59
2018-09-10T17:49:54.255Z,54.42
2018-09-10T17:52:22.827Z,54.97
2018-09-10T17:54:50.535Z,55.13
2018-09-10T17:57:18.529Z,53.56
2018-09-10T17:59:46.309Z,53.38
2018-09-10T18:02:14.059Z,53.58
2018-09-10T18:04:41.844Z,53.16
2018-09-10T18:07:09.582Z,52.18
2018-09-10T18:09:37.358Z,52.69
2018-09-10T18:12:05.249Z,52.62
2018-09-10T18:14:33.026Z,52.29
2018-09-10T18:17:00.790Z,52.83
2018-09-10T18:19:28.538Z,53.13
2018-09-10T18:21:56.481Z,53.99
2018-09-10T18:24:24.242Z,53.66
2018-09-10T18:26:51.948Z,54.99
2018-09-10T18:29:19.745Z,54.51
2018-09-10T18:31:47.461Z,54.90
2018-09-10T18:34:15.217Z,53.24
2018-09-10T18:36:43.359Z,55.04
2018-09-10T18:39:11.969Z,54.44
2018-09-10T18:41:39.751Z,54.62
2018-09-10T18:44:07.609Z,55.20
2018-09-10T18:46:35.322Z,55.12
2018-09-10T18:49:03.054Z,55.09
2018-09-10T18:51:30.887Z,55.32
2018-09-10T18:53:58.606Z,56.09
2018-09-10T18:56:26.337Z,55.82
2018-09-10T18:58:54.075Z,55.18
2018-09-10T19:01:22.017Z,53.85
2018-09-10T19:03:50.515Z,53.90
2018-09-10T19:06:18.324Z,52.67
2018-09-10T19:08:46.078Z,51.71
2018-09-10T19:11:13.862Z,52.36
2018-09-10T19:13:41.599Z,51.70
2018-09-10T19:16:09.324Z,51.28
2018-09-10T19:18:38.907Z,51.94
2018-09-10T19:21:07.313Z,52.21
2018-09-10T19:23:35.857Z,51.45
2018-09-10T19:26:03.849Z,51.94
2018-09-10T19:28:31.639Z,51.36
2018-09-10T19:30:59.521Z,50.64
2018-09-10T19:33:27.304Z,47.53
2018-09-10T19:35:55.322Z,47.34
2018-09-10T19:38:23.149Z,47.90
2018-09-10T19:40:50.900Z,47.04
2018-09-10T19:43:18.850Z,45.54
2018-09-10T19:45:46.636Z,46.86
2018-09-10T19:48:14.405Z,47.01
2018-09-10T19:50:42.229Z,48.01
2018-09-10T19:53:10.303Z,47.47
2018-09-10T19:55:38.102Z,46.46
2018-09-10T19:58:05.978Z,46.95
2018-09-10T20:00:33.721Z,46.68
2018-09-10T20:03:01.613Z,45.55
2018-09-10T20:05:29.406Z,45.73
2018-09-10T20:07:57.111Z,45.50
2018-09-10T20:10:24.813Z,45.41
2018-09-10T20:12:53.037Z,45.33
2018-09-10T20:15:20.840Z,45.39
2018-09-10T20:17:48.614Z,45.36
2018-09-10T20:20:16.410Z,45.45
2018-09-10T20:22:44.186Z,45.43
2018-09-10T20:25:11.971Z,46.02
2018-09-10T20:27:39.781Z,47.00
2018-09-10T20:30:07.655Z,47.63
2018-09-10T20:32:35.377Z,49.65
2018-09-10T20:35:03.577Z,49.87
2018-09-10T20:37:31.518Z,51.05
2018-09-10T20:40:00.098Z,52.86
2018-09-10T20:42:27.918Z,53.98
2018-09-10T20:44:55.625Z,55.46
2018-09-10T20:47:23.345Z,56.11
2018-09-10T20:49:51.162Z,57.62
2018-09-10T20:52:19.077Z,60.21
2018-09-10T20:54:46.669Z,60.29
2018-09-10T20:57:14.369Z,60.91
2018-09-10T20:59:42.080Z,60.87
2018-09-10T21:02:09.778Z,62.00
2018-09-10T21:04:37.580Z,62.22
2018-09-10T21:07:05.405Z,61.35
2018-09-10T21:09:33.048Z,61.24
2018-09-10T21:12:00.813Z,60.62
2018-09-10T21:14:28.529Z,61.47
2018-09-10T21:16:56.253Z,61.57
2018-09-10T21:19:23.968Z,61.44
2018-09-10T21:21:51.682Z,62.03
2018-09-10T21:24:19.416Z,61.58
2018-09-10T21:26:47.220Z,61.72
2018-09-10T21:29:14.922Z,61.41
2018-09-10T21:31:42.606Z,61.04
2018-09-10T21:34:10.326Z,60.63
2018-09-10T21:36:38.031Z,58.77
2018-09-10T21:39:07.295Z,57.24
2018-09-10T21:41:35.014Z,54.62
2018-09-10T21:44:02.745Z,54.64
2018-09-10T21:46:30.458Z,54.77
2018-09-10T21:48:58.199Z,52.82
2018-09-10T21:51:25.922Z,53.00
2018-09-10T21:53:53.636Z,52.00
2018-09-10T21:56:21.329Z,50.84
2018-09-10T21:58:48.978Z,50.77
2018-09-10T22:01:16.733Z,50.21
2018-09-10T22:03:44.511Z,50.18
2018-09-10T22:06:12.225Z,50.19
2018-09-10T22:08:39.984Z,49.83
2018-09-10T22:11:07.958Z,49.10
2018-09-10T22:13:35.706Z,49.38
2018-09-10T22:16:03.457Z,49.36
2018-09-10T22:18:31.206Z,48.81
2018-09-10T22:20:58.870Z,49.08
2018-09-10T22:23:26.614Z,48.41
2018-09-10T22:25:54.327Z,49.05
2018-09-10T22:28:22.015Z,48.89
2018-09-10T22:30:49.855Z,48.85
2018-09-10T22:33:17.570Z,49.33
2018-09-10T22:35:45.266Z,49.19
2018-09-10T22:38:12.904Z,50.01
2018-09-10T22:40:40.610Z,49.13
2018-09-10T22:43:08.296Z,49.29
2018-09-10T22:45:36.010Z,49.12
2018-09-10T22:48:03.721Z,49.39
2018-09-10T22:50:31.401Z,49.28
2018-09-10T22:52:59.125Z,48.56
2018-09-10T22:55:26.831Z,49.03
2018-09-10T22:57:54.500Z,49.26
2018-09-10T23:00:22.224Z,48.97
2018-09-10T23:02:50.298Z,49.12
2018-09-10T23:05:17.981Z,49.09
2018-09-10T23:07:45.648Z,48.50
2018-09-10T23:10:13.388Z,49.28
2018-09-10T23:12:41.076Z,49.47
2018-09-10T23:15:08.862Z,49.04
2018-09-10T23:17:36.566Z,50.33
2018-09-10T23:20:04.643Z,49.92
2018-09-10T23:22:32.309Z,49.66
2018-09-10T23:25:00.010Z,50.88
2018-09-10T23:27:27.700Z,51.43
2018-09-10T23:29:55.371Z,50.96
2018-09-10T23:32:23.136Z,51.31
2018-09-10T23:34:50.797Z,51.47
2018-09-10T23:39:51.929Z,50.35
2018-09-10T23:42:19.595Z,50.79
2018-09-10T23:44:47.264Z,51.12
2018-09-10T23:47:15.005Z,50.34
2018-09-10T23:49:42.671Z,50.80
2018-09-10T23:52:10.345Z,51.13
2018-09-10T23:54:38.057Z,50.98
2018-09-10T23:57:05.793Z,51.69
2018-09-10T23:59:33.482Z,51.79
